sensor_id;sensor_type;location;lat;lon;timestamp;P1;durP1;ratioP1;P2;durP2;ratioP2
44925;SDS011;30662;51.210;7.656;2023-07-13T00:00:10;4.65;;;1.55;;
44925;SDS011;30662;51.210;7.656;2023-07-13T00:02:38;5.18;;;1.75;;
44925;SDS011;30662;51.210;7.656;2023-07-13T00:05:05;5.68;;;1.60;;
44925;SDS011;30662;51.210;7.656;2023-07-13T00:07:33;6.05;;;1.88;;
44925;SDS011;30662;51.210;7.656;2023-07-13T00:10:00;6.05;;;1.40;;
44925;SDS011;30662;51.210;7.656;2023-07-13T00:12:30;3.83;;;1.63;;
44925;SDS011;30662;51.210;7.656;2023-07-13T00:15:04;7.47;;;1.60;;
44925;SDS011;30662;51.210;7.656;2023-07-13T00:17:33;4.10;;;1.30;;
44925;SDS011;30662;51.210;7.656;2023-07-13T00:20:00;4.57;;;1.55;;
44925;SDS011;30662;51.210;7.656;2023-07-13T00:22:27;4.35;;;1.63;;
44925;SDS011;30662;51.210;7.656;2023-07-13T00:24:53;7.47;;;1.65;;
44925;SDS011;30662;51.210;7.656;2023-07-13T00:27:22;10.27;;;1.98;;
44925;SDS011;30662;51.210;7.656;2023-07-13T00:29:50;9.95;;;1.77;;
44925;SDS011;30662;51.210;7.656;2023-07-13T00:32:16;5.13;;;1.75;;
44925;SDS011;30662;51.210;7.656;2023-07-13T00:34:43;5.45;;;1.40;;
44925;SDS011;30662;51.210;7.656;2023-07-13T00:37:09;4.90;;;1.33;;
44925;SDS011;30662;51.210;7.656;2023-07-13T00:39:37;5.40;;;1.27;;
44925;SDS011;30662;51.210;7.656;2023-07-13T00:42:04;2.47;;;1.23;;
44925;SDS011;30662;51.210;7.656;2023-07-13T00:44:31;3.78;;;1.17;;
44925;SDS011;30662;51.210;7.656;2023-07-13T00:46:57;5.47;;;1.60;;
44925;SDS011;30662;51.210;7.656;2023-07-13T00:49:25;5.88;;;1.30;;
44925;SDS011;30662;51.210;7.656;2023-07-13T00:52:03;6.03;;;1.52;;
44925;SDS011;30662;51.210;7.656;2023-07-13T00:54:38;3.83;;;1.65;;
44925;SDS011;30662;51.210;7.656;2023-07-13T00:57:08;11.27;;;2.00;;
44925;SDS011;30662;51.210;7.656;2023-07-13T00:59:37;4.90;;;1.38;;
44925;SDS011;30662;51.210;7.656;2023-07-13T01:02:08;3.25;;;1.33;;
44925;SDS011;30662;51.210;7.656;2023-07-13T01:04:36;6.53;;;1.70;;
44925;SDS011;30662;51.210;7.656;2023-07-13T01:07:05;7.20;;;1.70;;
44925;SDS011;30662;51.210;7.656;2023-07-13T01:09:33;11.18;;;1.70;;
44925;SDS011;30662;51.210;7.656;2023-07-13T01:12:00;6.18;;;1.63;;
44925;SDS011;30662;51.210;7.656;2023-07-13T01:14:28;6.00;;;1.65;;
44925;SDS011;30662;51.210;7.656;2023-07-13T01:16:55;5.40;;;1.67;;
44925;SDS011;30662;51.210;7.656;2023-07-13T01:19:29;5.53;;;1.40;;
44925;SDS011;30662;51.210;7.656;2023-07-13T01:22:04;5.50;;;1.35;;
44925;SDS011;30662;51.210;7.656;2023-07-13T01:24:39;3.67;;;1.42;;
44925;SDS011;30662;51.210;7.656;2023-07-13T01:27:07;10.05;;;2.05;;
44925;SDS011;30662;51.210;7.656;2023-07-13T01:29:35;4.00;;;1.23;;
44925;SDS011;30662;51.210;7.656;2023-07-13T01:32:10;5.73;;;1.60;;
44925;SDS011;30662;51.210;7.656;2023-07-13T01:34:39;5.53;;;1.63;;
44925;SDS011;30662;51.210;7.656;2023-07-13T01:37:09;5.82;;;1.45;;
44925;SDS011;30662;51.210;7.656;2023-07-13T01:39:36;7.95;;;1.48;;
44925;SDS011;30662;51.210;7.656;2023-07-13T01:42:03;6.00;;;1.90;;
44925;SDS011;30662;51.210;7.656;2023-07-13T01:44:30;7.18;;;1.67;;
44925;SDS011;30662;51.210;7.656;2023-07-13T01:46:57;3.35;;;1.40;;
44925;SDS011;30662;51.210;7.656;2023-07-13T01:49:24;8.18;;;1.65;;
44925;SDS011;30662;51.210;7.656;2023-07-13T01:51:50;5.57;;;1.88;;
44925;SDS011;30662;51.210;7.656;2023-07-13T01:54:17;7.18;;;1.80;;
44925;SDS011;30662;51.210;7.656;2023-07-13T01:56:43;4.55;;;1.63;;
44925;SDS011;30662;51.210;7.656;2023-07-13T01:59:10;4.55;;;1.35;;
44925;SDS011;30662;51.210;7.656;2023-07-13T02:01:37;8.15;;;1.60;;
44925;SDS011;30662;51.210;7.656;2023-07-13T02:04:03;5.95;;;1.85;;
44925;SDS011;30662;51.210;7.656;2023-07-13T02:06:30;6.50;;;1.30;;
44925;SDS011;30662;51.210;7.656;2023-07-13T02:08:57;10.13;;;1.98;;
44925;SDS011;30662;51.210;7.656;2023-07-13T02:11:24;5.55;;;1.77;;
44925;SDS011;30662;51.210;7.656;2023-07-13T02:13:51;3.17;;;1.38;;
44925;SDS011;30662;51.210;7.656;2023-07-13T02:16:18;3.55;;;1.20;;
44925;SDS011;30662;51.210;7.656;2023-07-13T02:18:44;6.10;;;1.48;;
44925;SDS011;30662;51.210;7.656;2023-07-13T02:21:11;3.72;;;1.30;;
44925;SDS011;30662;51.210;7.656;2023-07-13T02:23:38;5.35;;;1.63;;
44925;SDS011;30662;51.210;7.656;2023-07-13T02:26:04;4.20;;;1.80;;
44925;SDS011;30662;51.210;7.656;2023-07-13T02:28:31;5.45;;;1.67;;
44925;SDS011;30662;51.210;7.656;2023-07-13T02:31:04;5.20;;;2.00;;
44925;SDS011;30662;51.210;7.656;2023-07-13T02:33:32;6.22;;;1.60;;
44925;SDS011;30662;51.210;7.656;2023-07-13T02:35:58;4.68;;;1.48;;
44925;SDS011;30662;51.210;7.656;2023-07-13T02:38:25;8.65;;;1.67;;
44925;SDS011;30662;51.210;7.656;2023-07-13T02:40:52;5.65;;;2.08;;
44925;SDS011;30662;51.210;7.656;2023-07-13T02:43:18;7.45;;;1.80;;
44925;SDS011;30662;51.210;7.656;2023-07-13T02:45:45;6.90;;;1.42;;
44925;SDS011;30662;51.210;7.656;2023-07-13T02:48:13;3.25;;;1.30;;
44925;SDS011;30662;51.210;7.656;2023-07-13T02:50:40;4.63;;;1.30;;
44925;SDS011;30662;51.210;7.656;2023-07-13T02:53:14;9.07;;;1.38;;
44925;SDS011;30662;51.210;7.656;2023-07-13T02:55:41;5.22;;;1.48;;
44925;SDS011;30662;51.210;7.656;2023-07-13T02:58:13;8.38;;;1.83;;
44925;SDS011;30662;51.210;7.656;2023-07-13T03:00:43;5.68;;;2.08;;
44925;SDS011;30662;51.210;7.656;2023-07-13T03:03:13;4.97;;;1.42;;
44925;SDS011;30662;51.210;7.656;2023-07-13T03:05:40;5.00;;;1.42;;
44925;SDS011;30662;51.210;7.656;2023-07-13T03:08:09;13.98;;;2.08;;
44925;SDS011;30662;51.210;7.656;2023-07-13T03:10:36;6.60;;;1.50;;
44925;SDS011;30662;51.210;7.656;2023-07-13T03:13:04;5.03;;;1.45;;
44925;SDS011;30662;51.210;7.656;2023-07-13T03:15:31;6.30;;;1.58;;
44925;SDS011;30662;51.210;7.656;2023-07-13T03:17:58;7.47;;;1.42;;
44925;SDS011;30662;51.210;7.656;2023-07-13T03:20:24;8.77;;;1.98;;
44925;SDS011;30662;51.210;7.656;2023-07-13T03:22:51;4.15;;;1.48;;
44925;SDS011;30662;51.210;7.656;2023-07-13T03:25:18;4.65;;;1.48;;
44925;SDS011;30662;51.210;7.656;2023-07-13T03:27:44;3.47;;;1.25;;
44925;SDS011;30662;51.210;7.656;2023-07-13T03:30:11;5.38;;;1.77;;
44925;SDS011;30662;51.210;7.656;2023-07-13T03:32:38;5.30;;;1.52;;
44925;SDS011;30662;51.210;7.656;2023-07-13T03:35:05;6.28;;;1.55;;
44925;SDS011;30662;51.210;7.656;2023-07-13T03:37:31;6.72;;;1.95;;
44925;SDS011;30662;51.210;7.656;2023-07-13T03:39:58;6.70;;;1.92;;
44925;SDS011;30662;51.210;7.656;2023-07-13T03:42:24;6.20;;;1.50;;
44925;SDS011;30662;51.210;7.656;2023-07-13T03:44:52;5.22;;;1.92;;
44925;SDS011;30662;51.210;7.656;2023-07-13T03:47:18;5.60;;;1.73;;
44925;SDS011;30662;51.210;7.656;2023-07-13T03:49:45;7.05;;;1.58;;
44925;SDS011;30662;51.210;7.656;2023-07-13T03:52:12;5.88;;;1.73;;
44925;SDS011;30662;51.210;7.656;2023-07-13T03:54:39;8.95;;;1.80;;
44925;SDS011;30662;51.210;7.656;2023-07-13T03:57:05;6.18;;;1.50;;
44925;SDS011;30662;51.210;7.656;2023-07-13T03:59:32;6.22;;;1.52;;
44925;SDS011;30662;51.210;7.656;2023-07-13T04:02:00;5.00;;;1.50;;
44925;SDS011;30662;51.210;7.656;2023-07-13T04:04:27;6.13;;;1.60;;
44925;SDS011;30662;51.210;7.656;2023-07-13T04:06:54;4.28;;;1.65;;
44925;SDS011;30662;51.210;7.656;2023-07-13T04:09:21;5.63;;;2.28;;
44925;SDS011;30662;51.210;7.656;2023-07-13T04:11:47;7.80;;;2.63;;
44925;SDS011;30662;51.210;7.656;2023-07-13T04:14:14;5.45;;;1.98;;
44925;SDS011;30662;51.210;7.656;2023-07-13T04:16:41;7.60;;;2.03;;
44925;SDS011;30662;51.210;7.656;2023-07-13T04:19:08;6.10;;;1.73;;
44925;SDS011;30662;51.210;7.656;2023-07-13T04:21:36;4.57;;;1.63;;
44925;SDS011;30662;51.210;7.656;2023-07-13T04:24:03;9.10;;;2.47;;
44925;SDS011;30662;51.210;7.656;2023-07-13T04:26:30;9.70;;;1.90;;
44925;SDS011;30662;51.210;7.656;2023-07-13T04:28:56;11.02;;;2.15;;
44925;SDS011;30662;51.210;7.656;2023-07-13T04:31:23;3.35;;;1.40;;
44925;SDS011;30662;51.210;7.656;2023-07-13T04:33:50;4.57;;;1.60;;
44925;SDS011;30662;51.210;7.656;2023-07-13T04:36:17;4.65;;;1.48;;
44925;SDS011;30662;51.210;7.656;2023-07-13T04:38:44;7.25;;;1.92;;
44925;SDS011;30662;51.210;7.656;2023-07-13T04:41:10;6.55;;;1.85;;
44925;SDS011;30662;51.210;7.656;2023-07-13T04:43:38;5.70;;;1.85;;
44925;SDS011;30662;51.210;7.656;2023-07-13T04:46:08;6.10;;;2.08;;
44925;SDS011;30662;51.210;7.656;2023-07-13T04:48:38;5.68;;;1.83;;
44925;SDS011;30662;51.210;7.656;2023-07-13T04:51:06;8.20;;;1.35;;
44925;SDS011;30662;51.210;7.656;2023-07-13T04:53:33;6.47;;;1.30;;
44925;SDS011;30662;51.210;7.656;2023-07-13T04:56:01;3.15;;;1.20;;
44925;SDS011;30662;51.210;7.656;2023-07-13T04:58:28;7.07;;;2.42;;
44925;SDS011;30662;51.210;7.656;2023-07-13T05:00:59;8.07;;;2.58;;
44925;SDS011;30662;51.210;7.656;2023-07-13T05:03:28;5.30;;;1.67;;
44925;SDS011;30662;51.210;7.656;2023-07-13T05:05:56;8.98;;;1.63;;
44925;SDS011;30662;51.210;7.656;2023-07-13T05:08:24;4.75;;;1.50;;
44925;SDS011;30662;51.210;7.656;2023-07-13T05:10:51;5.00;;;1.65;;
44925;SDS011;30662;51.210;7.656;2023-07-13T05:13:18;4.72;;;1.30;;
44925;SDS011;30662;51.210;7.656;2023-07-13T05:15:47;3.55;;;1.27;;
44925;SDS011;30662;51.210;7.656;2023-07-13T05:18:24;4.35;;;1.58;;
44925;SDS011;30662;51.210;7.656;2023-07-13T05:21:02;9.80;;;1.90;;
44925;SDS011;30662;51.210;7.656;2023-07-13T05:23:34;8.18;;;1.90;;
44925;SDS011;30662;51.210;7.656;2023-07-13T05:26:02;8.05;;;2.00;;
44925;SDS011;30662;51.210;7.656;2023-07-13T05:28:34;7.07;;;1.98;;
44925;SDS011;30662;51.210;7.656;2023-07-13T05:31:01;4.18;;;1.48;;
44925;SDS011;30662;51.210;7.656;2023-07-13T05:33:27;8.60;;;2.03;;
44925;SDS011;30662;51.210;7.656;2023-07-13T05:35:54;6.88;;;1.65;;
44925;SDS011;30662;51.210;7.656;2023-07-13T05:38:21;4.40;;;1.35;;
44925;SDS011;30662;51.210;7.656;2023-07-13T05:40:48;6.97;;;1.70;;
44925;SDS011;30662;51.210;7.656;2023-07-13T05:43:16;4.30;;;1.55;;
44925;SDS011;30662;51.210;7.656;2023-07-13T05:45:42;6.55;;;1.95;;
44925;SDS011;30662;51.210;7.656;2023-07-13T05:48:09;7.13;;;1.92;;
44925;SDS011;30662;51.210;7.656;2023-07-13T05:50:35;9.90;;;1.85;;
44925;SDS011;30662;51.210;7.656;2023-07-13T05:53:02;7.47;;;1.67;;
44925;SDS011;30662;51.210;7.656;2023-07-13T05:55:29;3.92;;;1.67;;
44925;SDS011;30662;51.210;7.656;2023-07-13T05:57:56;8.05;;;1.88;;
44925;SDS011;30662;51.210;7.656;2023-07-13T06:00:24;5.25;;;1.50;;
44925;SDS011;30662;51.210;7.656;2023-07-13T06:02:51;5.78;;;2.10;;
44925;SDS011;30662;51.210;7.656;2023-07-13T06:05:19;4.85;;;2.08;;
44925;SDS011;30662;51.210;7.656;2023-07-13T06:07:45;6.68;;;1.95;;
44925;SDS011;30662;51.210;7.656;2023-07-13T06:10:12;8.73;;;1.90;;
44925;SDS011;30662;51.210;7.656;2023-07-13T06:12:38;7.30;;;1.90;;
44925;SDS011;30662;51.210;7.656;2023-07-13T06:15:06;5.00;;;1.65;;
44925;SDS011;30662;51.210;7.656;2023-07-13T06:17:33;5.38;;;1.70;;
44925;SDS011;30662;51.210;7.656;2023-07-13T06:20:00;9.70;;;2.90;;
44925;SDS011;30662;51.210;7.656;2023-07-13T06:22:27;5.28;;;2.28;;
44925;SDS011;30662;51.210;7.656;2023-07-13T06:24:53;6.78;;;2.50;;
44925;SDS011;30662;51.210;7.656;2023-07-13T06:27:20;6.43;;;2.30;;
44925;SDS011;30662;51.210;7.656;2023-07-13T06:29:46;9.02;;;2.63;;
44925;SDS011;30662;51.210;7.656;2023-07-13T06:32:13;8.13;;;3.28;;
44925;SDS011;30662;51.210;7.656;2023-07-13T06:34:39;8.82;;;3.92;;
44925;SDS011;30662;51.210;7.656;2023-07-13T06:37:08;10.93;;;3.92;;
44925;SDS011;30662;51.210;7.656;2023-07-13T06:39:35;7.68;;;3.47;;
44925;SDS011;30662;51.210;7.656;2023-07-13T06:42:02;9.75;;;4.20;;
44925;SDS011;30662;51.210;7.656;2023-07-13T06:44:29;13.25;;;4.53;;
44925;SDS011;30662;51.210;7.656;2023-07-13T06:46:55;9.80;;;4.50;;
44925;SDS011;30662;51.210;7.656;2023-07-13T06:49:22;10.07;;;4.57;;
44925;SDS011;30662;51.210;7.656;2023-07-13T06:51:49;9.63;;;5.10;;
44925;SDS011;30662;51.210;7.656;2023-07-13T06:54:15;10.32;;;4.95;;
44925;SDS011;30662;51.210;7.656;2023-07-13T06:56:42;10.93;;;5.35;;
44925;SDS011;30662;51.210;7.656;2023-07-13T06:59:08;13.05;;;5.25;;
44925;SDS011;30662;51.210;7.656;2023-07-13T07:01:35;9.80;;;4.70;;
44925;SDS011;30662;51.210;7.656;2023-07-13T07:04:05;8.75;;;4.57;;
44925;SDS011;30662;51.210;7.656;2023-07-13T07:06:31;12.07;;;5.05;;
44925;SDS011;30662;51.210;7.656;2023-07-13T07:08:58;7.93;;;4.50;;
44925;SDS011;30662;51.210;7.656;2023-07-13T07:11:25;11.23;;;5.78;;
44925;SDS011;30662;51.210;7.656;2023-07-13T07:13:52;13.27;;;6.22;;
44925;SDS011;30662;51.210;7.656;2023-07-13T07:16:20;9.07;;;5.80;;
44925;SDS011;30662;51.210;7.656;2023-07-13T07:18:47;8.60;;;5.25;;
44925;SDS011;30662;51.210;7.656;2023-07-13T07:21:14;9.38;;;4.72;;
44925;SDS011;30662;51.210;7.656;2023-07-13T07:23:41;11.35;;;4.72;;
44925;SDS011;30662;51.210;7.656;2023-07-13T07:26:08;7.50;;;4.38;;
44925;SDS011;30662;51.210;7.656;2023-07-13T07:28:36;8.32;;;3.63;;
44925;SDS011;30662;51.210;7.656;2023-07-13T07:31:05;9.23;;;4.10;;
44925;SDS011;30662;51.210;7.656;2023-07-13T07:33:35;8.93;;;3.53;;
44925;SDS011;30662;51.210;7.656;2023-07-13T07:36:02;6.43;;;3.58;;
44925;SDS011;30662;51.210;7.656;2023-07-13T07:38:32;8.32;;;3.55;;
44925;SDS011;30662;51.210;7.656;2023-07-13T07:41:00;8.93;;;3.80;;
44925;SDS011;30662;51.210;7.656;2023-07-13T07:43:32;9.75;;;3.40;;
44925;SDS011;30662;51.210;7.656;2023-07-13T07:45:58;7.90;;;3.38;;
44925;SDS011;30662;51.210;7.656;2023-07-13T07:48:28;8.15;;;3.30;;
44925;SDS011;30662;51.210;7.656;2023-07-13T07:50:55;6.40;;;2.20;;
44925;SDS011;30662;51.210;7.656;2023-07-13T07:53:21;10.63;;;2.50;;
44925;SDS011;30662;51.210;7.656;2023-07-13T07:55:48;9.35;;;2.85;;
44925;SDS011;30662;51.210;7.656;2023-07-13T07:58:18;10.25;;;2.53;;
44925;SDS011;30662;51.210;7.656;2023-07-13T08:00:47;8.20;;;2.80;;
44925;SDS011;30662;51.210;7.656;2023-07-13T08:03:17;7.90;;;2.20;;
44925;SDS011;30662;51.210;7.656;2023-07-13T08:05:46;10.20;;;2.35;;
44925;SDS011;30662;51.210;7.656;2023-07-13T08:08:34;7.93;;;2.63;;
44925;SDS011;30662;51.210;7.656;2023-07-13T08:11:07;7.13;;;2.38;;
44925;SDS011;30662;51.210;7.656;2023-07-13T08:13:37;10.73;;;2.50;;
44925;SDS011;30662;51.210;7.656;2023-07-13T08:16:04;4.88;;;2.08;;
44925;SDS011;30662;51.210;7.656;2023-07-13T08:18:32;5.38;;;2.15;;
44925;SDS011;30662;51.210;7.656;2023-07-13T08:21:02;8.77;;;2.33;;
44925;SDS011;30662;51.210;7.656;2023-07-13T08:23:32;8.07;;;2.55;;
44925;SDS011;30662;51.210;7.656;2023-07-13T08:25:59;7.85;;;2.70;;
44925;SDS011;30662;51.210;7.656;2023-07-13T08:28:28;8.25;;;2.67;;
44925;SDS011;30662;51.210;7.656;2023-07-13T08:30:55;5.60;;;2.22;;
44925;SDS011;30662;51.210;7.656;2023-07-13T08:33:26;7.95;;;2.25;;
44925;SDS011;30662;51.210;7.656;2023-07-13T08:35:52;8.30;;;2.47;;
44925;SDS011;30662;51.210;7.656;2023-07-13T08:38:19;6.43;;;2.08;;
44925;SDS011;30662;51.210;7.656;2023-07-13T08:40:49;5.82;;;2.03;;
44925;SDS011;30662;51.210;7.656;2023-07-13T08:43:20;7.07;;;2.28;;
44925;SDS011;30662;51.210;7.656;2023-07-13T08:45:54;6.93;;;2.23;;
44925;SDS011;30662;51.210;7.656;2023-07-13T08:48:34;5.63;;;2.35;;
44925;SDS011;30662;51.210;7.656;2023-07-13T08:53:47;9.07;;;2.33;;
44925;SDS011;30662;51.210;7.656;2023-07-13T08:56:19;6.93;;;1.80;;
44925;SDS011;30662;51.210;7.656;2023-07-13T08:58:48;7.68;;;1.90;;
44925;SDS011;30662;51.210;7.656;2023-07-13T09:01:45;5.72;;;2.00;;
44925;SDS011;30662;51.210;7.656;2023-07-13T09:04:23;7.28;;;2.08;;
44925;SDS011;30662;51.210;7.656;2023-07-13T09:10:05;5.95;;;1.83;;
44925;SDS011;30662;51.210;7.656;2023-07-13T09:15:22;6.63;;;1.95;;
44925;SDS011;30662;51.210;7.656;2023-07-13T09:17:53;6.15;;;1.92;;
44925;SDS011;30662;51.210;7.656;2023-07-13T09:20:31;5.95;;;1.88;;
44925;SDS011;30662;51.210;7.656;2023-07-13T09:23:04;6.55;;;2.72;;
44925;SDS011;30662;51.210;7.656;2023-07-13T09:25:37;4.70;;;2.10;;
44925;SDS011;30662;51.210;7.656;2023-07-13T09:28:20;8.43;;;2.25;;
44925;SDS011;30662;51.210;7.656;2023-07-13T09:31:03;6.20;;;2.17;;
44925;SDS011;30662;51.210;7.656;2023-07-13T09:33:32;5.70;;;2.03;;
44925;SDS011;30662;51.210;7.656;2023-07-13T09:36:01;7.03;;;2.08;;
44925;SDS011;30662;51.210;7.656;2023-07-13T09:38:43;7.85;;;2.15;;
44925;SDS011;30662;51.210;7.656;2023-07-13T09:41:15;7.93;;;2.40;;
44925;SDS011;30662;51.210;7.656;2023-07-13T09:44:09;5.43;;;2.00;;
44925;SDS011;30662;51.210;7.656;2023-07-13T09:46:39;8.13;;;1.90;;
44925;SDS011;30662;51.210;7.656;2023-07-13T09:49:26;9.23;;;2.42;;
44925;SDS011;30662;51.210;7.656;2023-07-13T09:51:58;9.90;;;2.10;;
44925;SDS011;30662;51.210;7.656;2023-07-13T09:54:32;8.00;;;2.47;;
44925;SDS011;30662;51.210;7.656;2023-07-13T09:57:01;6.15;;;1.75;;
44925;SDS011;30662;51.210;7.656;2023-07-13T09:59:30;6.78;;;2.08;;
44925;SDS011;30662;51.210;7.656;2023-07-13T10:05:02;6.15;;;2.05;;
44925;SDS011;30662;51.210;7.656;2023-07-13T10:07:32;6.45;;;2.13;;
44925;SDS011;30662;51.210;7.656;2023-07-13T10:10:12;10.77;;;2.38;;
44925;SDS011;30662;51.210;7.656;2023-07-13T10:12:44;5.78;;;2.22;;
44925;SDS011;30662;51.210;7.656;2023-07-13T10:15:15;5.97;;;2.28;;
44925;SDS011;30662;51.210;7.656;2023-07-13T10:17:50;3.67;;;2.10;;
44925;SDS011;30662;51.210;7.656;2023-07-13T10:20:19;5.95;;;2.50;;
44925;SDS011;30662;51.210;7.656;2023-07-13T10:23:04;6.55;;;2.10;;
44925;SDS011;30662;51.210;7.656;2023-07-13T10:25:38;5.60;;;2.08;;
44925;SDS011;30662;51.210;7.656;2023-07-13T10:30:55;5.28;;;2.45;;
44925;SDS011;30662;51.210;7.656;2023-07-13T10:33:26;4.85;;;2.10;;
44925;SDS011;30662;51.210;7.656;2023-07-13T10:35:57;5.05;;;2.13;;
44925;SDS011;30662;51.210;7.656;2023-07-13T10:38:30;6.80;;;1.90;;
44925;SDS011;30662;51.210;7.656;2023-07-13T10:40:58;5.22;;;1.85;;
44925;SDS011;30662;51.210;7.656;2023-07-13T10:43:36;6.68;;;1.98;;
44925;SDS011;30662;51.210;7.656;2023-07-13T10:46:10;4.55;;;1.92;;
44925;SDS011;30662;51.210;7.656;2023-07-13T10:48:39;5.30;;;1.83;;
44925;SDS011;30662;51.210;7.656;2023-07-13T10:51:08;4.32;;;1.98;;
44925;SDS011;30662;51.210;7.656;2023-07-13T10:53:38;6.78;;;2.55;;
44925;SDS011;30662;51.210;7.656;2023-07-13T10:56:27;4.72;;;1.90;;
44925;SDS011;30662;51.210;7.656;2023-07-13T11:04:28;7.28;;;2.22;;
44925;SDS011;30662;51.210;7.656;2023-07-13T11:07:19;6.20;;;1.50;;
44925;SDS011;30662;51.210;7.656;2023-07-13T11:09:51;3.92;;;1.60;;
44925;SDS011;30662;51.210;7.656;2023-07-13T11:22:47;5.05;;;1.73;;
44925;SDS011;30662;51.210;7.656;2023-07-13T11:25:25;5.05;;;2.00;;
44925;SDS011;30662;51.210;7.656;2023-07-13T11:30:46;3.72;;;1.60;;
44925;SDS011;30662;51.210;7.656;2023-07-13T11:36:12;6.03;;;1.83;;
44925;SDS011;30662;51.210;7.656;2023-07-13T11:38:42;3.55;;;1.85;;
44925;SDS011;30662;51.210;7.656;2023-07-13T11:43:49;2.58;;;1.60;;
44925;SDS011;30662;51.210;7.656;2023-07-13T11:46:20;8.38;;;1.98;;
44925;SDS011;30662;51.210;7.656;2023-07-13T11:48:49;5.78;;;1.70;;
44925;SDS011;30662;51.210;7.656;2023-07-13T11:51:30;5.78;;;1.90;;
44925;SDS011;30662;51.210;7.656;2023-07-13T11:53:59;5.88;;;1.70;;
44925;SDS011;30662;51.210;7.656;2023-07-13T11:56:30;6.13;;;2.08;;
44925;SDS011;30662;51.210;7.656;2023-07-13T11:58:59;7.05;;;2.00;;
44925;SDS011;30662;51.210;7.656;2023-07-13T12:01:32;6.38;;;1.92;;
44925;SDS011;30662;51.210;7.656;2023-07-13T12:04:03;5.70;;;2.03;;
44925;SDS011;30662;51.210;7.656;2023-07-13T12:06:31;4.60;;;2.00;;
44925;SDS011;30662;51.210;7.656;2023-07-13T12:09:00;6.47;;;2.15;;
44925;SDS011;30662;51.210;7.656;2023-07-13T12:11:29;5.80;;;1.60;;
44925;SDS011;30662;51.210;7.656;2023-07-13T12:13:56;3.10;;;1.40;;
44925;SDS011;30662;51.210;7.656;2023-07-13T12:16:28;3.80;;;1.48;;
44925;SDS011;30662;51.210;7.656;2023-07-13T12:18:57;8.80;;;1.70;;
44925;SDS011;30662;51.210;7.656;2023-07-13T12:21:33;7.15;;;1.70;;
44925;SDS011;30662;51.210;7.656;2023-07-13T12:24:04;5.00;;;1.60;;
44925;SDS011;30662;51.210;7.656;2023-07-13T12:29:06;3.22;;;1.20;;
44925;SDS011;30662;51.210;7.656;2023-07-13T12:31:35;6.03;;;1.85;;
44925;SDS011;30662;51.210;7.656;2023-07-13T12:36:35;5.60;;;1.73;;
44925;SDS011;30662;51.210;7.656;2023-07-13T12:39:05;7.25;;;1.67;;
44925;SDS011;30662;51.210;7.656;2023-07-13T12:41:39;6.60;;;1.83;;
44925;SDS011;30662;51.210;7.656;2023-07-13T12:44:16;6.25;;;1.50;;
44925;SDS011;30662;51.210;7.656;2023-07-13T12:49:50;4.07;;;1.70;;
44925;SDS011;30662;51.210;7.656;2023-07-13T12:52:21;4.13;;;1.83;;
44925;SDS011;30662;51.210;7.656;2023-07-13T12:54:54;6.28;;;1.40;;
44925;SDS011;30662;51.210;7.656;2023-07-13T12:57:32;5.20;;;1.83;;
44925;SDS011;30662;51.210;7.656;2023-07-13T13:00:09;6.60;;;1.85;;
44925;SDS011;30662;51.210;7.656;2023-07-13T13:02:45;9.02;;;1.70;;
44925;SDS011;30662;51.210;7.656;2023-07-13T13:05:17;4.55;;;1.60;;
44925;SDS011;30662;51.210;7.656;2023-07-13T13:07:44;4.38;;;1.67;;
44925;SDS011;30662;51.210;7.656;2023-07-13T13:10:13;2.55;;;1.40;;
44925;SDS011;30662;51.210;7.656;2023-07-13T13:12:40;4.22;;;1.58;;
44925;SDS011;30662;51.210;7.656;2023-07-13T13:15:09;4.45;;;1.58;;
44925;SDS011;30662;51.210;7.656;2023-07-13T13:17:37;4.88;;;1.63;;
44925;SDS011;30662;51.210;7.656;2023-07-13T13:20:13;6.22;;;1.42;;
44925;SDS011;30662;51.210;7.656;2023-07-13T13:22:42;2.95;;;0.98;;
44925;SDS011;30662;51.210;7.656;2023-07-13T13:25:12;4.72;;;1.50;;
44925;SDS011;30662;51.210;7.656;2023-07-13T13:27:40;3.88;;;1.23;;
44925;SDS011;30662;51.210;7.656;2023-07-13T13:30:12;4.35;;;1.90;;
44925;SDS011;30662;51.210;7.656;2023-07-13T13:32:45;6.18;;;1.40;;
44925;SDS011;30662;51.210;7.656;2023-07-13T13:35:14;6.78;;;1.95;;
44925;SDS011;30662;51.210;7.656;2023-07-13T13:37:41;4.15;;;1.45;;
44925;SDS011;30662;51.210;7.656;2023-07-13T13:40:13;7.13;;;1.60;;
44925;SDS011;30662;51.210;7.656;2023-07-13T13:42:44;3.10;;;1.25;;
44925;SDS011;30662;51.210;7.656;2023-07-13T13:45:11;6.60;;;1.65;;
44925;SDS011;30662;51.210;7.656;2023-07-13T13:47:39;6.60;;;1.70;;
44925;SDS011;30662;51.210;7.656;2023-07-13T13:52:41;9.07;;;1.50;;
44925;SDS011;30662;51.210;7.656;2023-07-13T13:55:15;4.60;;;1.40;;
44925;SDS011;30662;51.210;7.656;2023-07-13T13:57:47;5.00;;;1.38;;
44925;SDS011;30662;51.210;7.656;2023-07-13T14:00:16;6.85;;;1.58;;
44925;SDS011;30662;51.210;7.656;2023-07-13T14:02:47;5.65;;;1.83;;
44925;SDS011;30662;51.210;7.656;2023-07-13T14:05:24;5.03;;;1.33;;
44925;SDS011;30662;51.210;7.656;2023-07-13T14:07:56;6.13;;;1.50;;
44925;SDS011;30662;51.210;7.656;2023-07-13T14:10:23;3.85;;;1.27;;
44925;SDS011;30662;51.210;7.656;2023-07-13T14:12:51;6.68;;;1.60;;
44925;SDS011;30662;51.210;7.656;2023-07-13T14:15:26;7.50;;;2.30;;
44925;SDS011;30662;51.210;7.656;2023-07-13T14:17:54;6.32;;;1.70;;
44925;SDS011;30662;51.210;7.656;2023-07-13T14:20:22;6.60;;;1.45;;
44925;SDS011;30662;51.210;7.656;2023-07-13T14:22:50;6.07;;;1.33;;
44925;SDS011;30662;51.210;7.656;2023-07-13T14:25:18;8.35;;;1.77;;
44925;SDS011;30662;51.210;7.656;2023-07-13T14:27:48;3.15;;;1.50;;
44925;SDS011;30662;51.210;7.656;2023-07-13T14:30:18;3.53;;;1.40;;
44925;SDS011;30662;51.210;7.656;2023-07-13T14:32:47;6.80;;;1.83;;
44925;SDS011;30662;51.210;7.656;2023-07-13T14:35:16;3.55;;;1.88;;
44925;SDS011;30662;51.210;7.656;2023-07-13T14:37:44;5.80;;;1.88;;
44925;SDS011;30662;51.210;7.656;2023-07-13T14:40:17;8.18;;;1.77;;
44925;SDS011;30662;51.210;7.656;2023-07-13T14:42:50;5.43;;;1.55;;
44925;SDS011;30662;51.210;7.656;2023-07-13T14:45:17;10.25;;;2.03;;
44925;SDS011;30662;51.210;7.656;2023-07-13T14:47:46;6.18;;;1.50;;
44925;SDS011;30662;51.210;7.656;2023-07-13T14:50:17;3.88;;;1.30;;
44925;SDS011;30662;51.210;7.656;2023-07-13T14:52:47;5.55;;;1.65;;
44925;SDS011;30662;51.210;7.656;2023-07-13T14:55:16;6.43;;;1.42;;
44925;SDS011;30662;51.210;7.656;2023-07-13T14:57:44;4.32;;;1.58;;
44925;SDS011;30662;51.210;7.656;2023-07-13T15:00:13;7.97;;;1.58;;
44925;SDS011;30662;51.210;7.656;2023-07-13T15:02:42;8.00;;;1.75;;
44925;SDS011;30662;51.210;7.656;2023-07-13T15:05:14;4.30;;;1.20;;
44925;SDS011;30662;51.210;7.656;2023-07-13T15:07:44;4.57;;;1.35;;
44925;SDS011;30662;51.210;7.656;2023-07-13T15:12:40;4.78;;;1.27;;
44925;SDS011;30662;51.210;7.656;2023-07-13T15:15:07;2.78;;;1.20;;
44925;SDS011;30662;51.210;7.656;2023-07-13T15:17:38;3.00;;;1.25;;
44925;SDS011;30662;51.210;7.656;2023-07-13T15:20:16;6.03;;;2.25;;
44925;SDS011;30662;51.210;7.656;2023-07-13T15:23:02;7.13;;;1.52;;
44925;SDS011;30662;51.210;7.656;2023-07-13T15:25:30;4.57;;;1.35;;
44925;SDS011;30662;51.210;7.656;2023-07-13T15:27:59;5.93;;;1.38;;
44925;SDS011;30662;51.210;7.656;2023-07-13T15:30:28;4.95;;;1.30;;
44925;SDS011;30662;51.210;7.656;2023-07-13T15:32:58;4.63;;;1.63;;
44925;SDS011;30662;51.210;7.656;2023-07-13T15:35:33;3.15;;;1.88;;
44925;SDS011;30662;51.210;7.656;2023-07-13T15:37:59;4.93;;;2.05;;
44925;SDS011;30662;51.210;7.656;2023-07-13T15:40:26;4.38;;;1.83;;
44925;SDS011;30662;51.210;7.656;2023-07-13T15:42:52;4.68;;;1.40;;
44925;SDS011;30662;51.210;7.656;2023-07-13T15:45:23;4.82;;;1.83;;
44925;SDS011;30662;51.210;7.656;2023-07-13T15:47:54;3.40;;;1.50;;
44925;SDS011;30662;51.210;7.656;2023-07-13T15:50:21;5.05;;;1.63;;
44925;SDS011;30662;51.210;7.656;2023-07-13T15:52:52;4.63;;;1.73;;